sensor_id;sensor_type;location;lat;lon;timestamp;pressure;altitude;pressure_sealevel;temperature;humidity
10618;BME280;5356;43.526;26.534;2023-09-18T00:01:47;99694.69;;;18.63;100.00
10618;BME280;5356;43.526;26.534;2023-09-18T00:04:13;99704.38;;;18.59;100.00
10618;BME280;5356;43.526;26.534;2023-09-18T00:06:38;99682.72;;;18.54;100.00
10618;BME280;5356;43.526;26.534;2023-09-18T00:09:04;99681.41;;;18.56;100.00
10618;BME280;5356;43.526;26.534;2023-09-18T00:11:31;99683.59;;;18.59;100.00
10618;BME280;5356;43.526;26.534;2023-09-18T00:13:57;99678.19;;;18.59;100.00
10618;BME280;5356;43.526;26.534;2023-09-18T00:16:22;99680.34;;;18.57;100.00
10618;BME280;5356;43.526;26.534;2023-09-18T00:18:50;99680.63;;;18.61;100.00
10618;BME280;5356;43.526;26.534;2023-09-18T00:21:15;99673.91;;;18.63;100.00
10618;BME280;5356;43.526;26.534;2023-09-18T00:23:41;99676.19;;;18.45;100.00
10618;BME280;5356;43.526;26.534;2023-09-18T00:26:07;99672.66;;;18.39;100.00
10618;BME280;5356;43.526;26.534;2023-09-18T00:28:33;99672.94;;;18.43;100.00
10618;BME280;5356;43.526;26.534;2023-09-18T00:30:58;99673.50;;;18.45;100.00
10618;BME280;5356;43.526;26.534;2023-09-18T00:33:23;99684.09;;;18.51;100.00
10618;BME280;5356;43.526;26.534;2023-09-18T00:35:50;99672.50;;;18.56;100.00
10618;BME280;5356;43.526;26.534;2023-09-18T00:38:16;99678.50;;;18.63;100.00
10618;BME280;5356;43.526;26.534;2023-09-18T00:40:42;99682.78;;;18.59;100.00
10618;BME280;5356;43.526;26.534;2023-09-18T00:43:08;99675.75;;;18.58;100.00
10618;BME280;5356;43.526;26.534;2023-09-18T00:45:39;99676.56;;;18.58;100.00
10618;BME280;5356;43.526;26.534;2023-09-18T00:48:05;99679.50;;;18.57;100.00
10618;BME280;5356;43.526;26.534;2023-09-18T00:50:31;99680.56;;;18.51;100.00
10618;BME280;5356;43.526;26.534;2023-09-18T00:52:57;99677.56;;;18.47;100.00
10618;BME280;5356;43.526;26.534;2023-09-18T00:55:23;99673.25;;;18.46;100.00
10618;BME280;5356;43.526;26.534;2023-09-18T00:57:48;99669.44;;;18.42;100.00
10618;BME280;5356;43.526;26.534;2023-09-18T01:00:14;99673.19;;;18.36;100.00
10618;BME280;5356;43.526;26.534;2023-09-18T01:02:43;99675.84;;;18.31;100.00
10618;BME280;5356;43.526;26.534;2023-09-18T01:05:10;99665.84;;;18.26;100.00
10618;BME280;5356;43.526;26.534;2023-09-18T01:07:35;99676.25;;;18.12;100.00
10618;BME280;5356;43.526;26.534;2023-09-18T01:10:01;99670.00;;;18.07;100.00
10618;BME280;5356;43.526;26.534;2023-09-18T01:12:46;99674.59;;;18.11;100.00
10618;BME280;5356;43.526;26.534;2023-09-18T01:15:22;99678.19;;;18.22;100.00
10618;BME280;5356;43.526;26.534;2023-09-18T01:17:52;99663.94;;;18.27;100.00
10618;BME280;5356;43.526;26.534;2023-09-18T01:20:18;99672.28;;;18.25;100.00
10618;BME280;5356;43.526;26.534;2023-09-18T01:22:43;99666.84;;;18.20;100.00
10618;BME280;5356;43.526;26.534;2023-09-18T01:25:09;99672.69;;;18.07;100.00
10618;BME280;5356;43.526;26.534;2023-09-18T01:27:35;99676.59;;;17.94;100.00
10618;BME280;5356;43.526;26.534;2023-09-18T01:30:01;99683.78;;;17.83;100.00
10618;BME280;5356;43.526;26.534;2023-09-18T01:32:29;99682.69;;;17.79;100.00
10618;BME280;5356;43.526;26.534;2023-09-18T01:34:57;99678.53;;;17.71;100.00
10618;BME280;5356;43.526;26.534;2023-09-18T01:37:24;99684.25;;;17.75;100.00
10618;BME280;5356;43.526;26.534;2023-09-18T01:39:51;99685.22;;;17.69;100.00
10618;BME280;5356;43.526;26.534;2023-09-18T01:42:18;99676.78;;;17.60;100.00
10618;BME280;5356;43.526;26.534;2023-09-18T01:44:44;99679.94;;;17.52;100.00
10618;BME280;5356;43.526;26.534;2023-09-18T01:47:14;99678.94;;;17.58;100.00
10618;BME280;5356;43.526;26.534;2023-09-18T01:49:41;99682.25;;;17.43;100.00
10618;BME280;5356;43.526;26.534;2023-09-18T01:52:08;99688.44;;;17.39;100.00
10618;BME280;5356;43.526;26.534;2023-09-18T01:54:34;99686.69;;;17.27;100.00
10618;BME280;5356;43.526;26.534;2023-09-18T01:57:00;99681.94;;;17.13;100.00
10618;BME280;5356;43.526;26.534;2023-09-18T01:59:27;99680.41;;;17.22;100.00
10618;BME280;5356;43.526;26.534;2023-09-18T02:01:53;99678.84;;;17.26;100.00
10618;BME280;5356;43.526;26.534;2023-09-18T02:04:22;99686.69;;;17.27;100.00
10618;BME280;5356;43.526;26.534;2023-09-18T02:06:50;99689.88;;;17.24;100.00
10618;BME280;5356;43.526;26.534;2023-09-18T02:09:16;99681.16;;;17.39;100.00
10618;BME280;5356;43.526;26.534;2023-09-18T02:11:43;99682.53;;;17.42;100.00
10618;BME280;5356;43.526;26.534;2023-09-18T02:14:09;99677.16;;;17.42;100.00
10618;BME280;5356;43.526;26.534;2023-09-18T02:16:37;99682.97;;;17.34;100.00
10618;BME280;5356;43.526;26.534;2023-09-18T02:19:03;99681.88;;;17.30;100.00
10618;BME280;5356;43.526;26.534;2023-09-18T02:21:30;99677.78;;;17.27;100.00
10618;BME280;5356;43.526;26.534;2023-09-18T02:23:57;99683.19;;;17.27;100.00
10618;BME280;5356;43.526;26.534;2023-09-18T02:26:24;99681.00;;;17.24;100.00
10618;BME280;5356;43.526;26.534;2023-09-18T02:28:51;99677.53;;;17.28;100.00
10618;BME280;5356;43.526;26.534;2023-09-18T02:31:17;99685.28;;;17.25;100.00
10618;BME280;5356;43.526;26.534;2023-09-18T02:33:43;99683.28;;;17.15;100.00
10618;BME280;5356;43.526;26.534;2023-09-18T02:36:08;99685.34;;;17.08;100.00
10618;BME280;5356;43.526;26.534;2023-09-18T02:38:34;99684.72;;;17.01;100.00
10618;BME280;5356;43.526;26.534;2023-09-18T02:41:00;99681.63;;;16.92;100.00
10618;BME280;5356;43.526;26.534;2023-09-18T02:43:26;99694.38;;;16.97;100.00
10618;BME280;5356;43.526;26.534;2023-09-18T02:45:51;99689.97;;;16.91;100.00
10618;BME280;5356;43.526;26.534;2023-09-18T02:48:17;99694.72;;;16.83;100.00
10618;BME280;5356;43.526;26.534;2023-09-18T02:50:43;99694.91;;;16.77;100.00
10618;BME280;5356;43.526;26.534;2023-09-18T02:53:20;99692.03;;;16.83;100.00
10618;BME280;5356;43.526;26.534;2023-09-18T02:55:47;99703.28;;;16.80;100.00
10618;BME280;5356;43.526;26.534;2023-09-18T02:58:12;99698.47;;;16.82;100.00
10618;BME280;5356;43.526;26.534;2023-09-18T03:00:42;99697.97;;;16.86;100.00
10618;BME280;5356;43.526;26.534;2023-09-18T03:03:08;99705.97;;;16.80;100.00
10618;BME280;5356;43.526;26.534;2023-09-18T03:05:35;99705.47;;;16.83;100.00
10618;BME280;5356;43.526;26.534;2023-09-18T03:08:01;99702.56;;;16.85;100.00
10618;BME280;5356;43.526;26.534;2023-09-18T03:10:27;99703.78;;;16.77;100.00
10618;BME280;5356;43.526;26.534;2023-09-18T03:12:53;99702.63;;;16.73;100.00
10618;BME280;5356;43.526;26.534;2023-09-18T03:15:18;99704.34;;;16.79;100.00
10618;BME280;5356;43.526;26.534;2023-09-18T03:17:44;99708.44;;;16.82;100.00
10618;BME280;5356;43.526;26.534;2023-09-18T03:20:10;99705.81;;;16.70;100.00
10618;BME280;5356;43.526;26.534;2023-09-18T03:22:35;99705.31;;;16.73;100.00
10618;BME280;5356;43.526;26.534;2023-09-18T03:25:00;99704.25;;;16.74;100.00
10618;BME280;5356;43.526;26.534;2023-09-18T03:27:26;99699.47;;;16.76;100.00
10618;BME280;5356;43.526;26.534;2023-09-18T03:29:57;99698.88;;;16.74;100.00
10618;BME280;5356;43.526;26.534;2023-09-18T03:32:23;99701.25;;;16.71;100.00
10618;BME280;5356;43.526;26.534;2023-09-18T03:34:51;99703.66;;;16.72;100.00
10618;BME280;5356;43.526;26.534;2023-09-18T03:37:16;99703.38;;;16.69;100.00
10618;BME280;5356;43.526;26.534;2023-09-18T03:39:42;99710.69;;;16.73;100.00
10618;BME280;5356;43.526;26.534;2023-09-18T03:42:07;99702.56;;;16.68;100.00
10618;BME280;5356;43.526;26.534;2023-09-18T03:44:33;99703.03;;;16.65;100.00
10618;BME280;5356;43.526;26.534;2023-09-18T03:46:58;99715.25;;;16.56;100.00
10618;BME280;5356;43.526;26.534;2023-09-18T03:49:23;99723.09;;;16.57;100.00
10618;BME280;5356;43.526;26.534;2023-09-18T03:51:49;99720.72;;;16.61;100.00
10618;BME280;5356;43.526;26.534;2023-09-18T03:54:15;99721.72;;;16.55;100.00
10618;BME280;5356;43.526;26.534;2023-09-18T03:56:40;99713.22;;;16.63;100.00
10618;BME280;5356;43.526;26.534;2023-09-18T03:59:06;99726.59;;;16.58;100.00
10618;BME280;5356;43.526;26.534;2023-09-18T04:01:31;99719.28;;;16.53;100.00
10618;BME280;5356;43.526;26.534;2023-09-18T04:03:57;99727.28;;;16.48;100.00
10618;BME280;5356;43.526;26.534;2023-09-18T04:06:23;99729.69;;;16.50;100.00
10618;BME280;5356;43.526;26.534;2023-09-18T04:08:50;99736.97;;;16.49;100.00
10618;BME280;5356;43.526;26.534;2023-09-18T04:11:16;99739.41;;;16.51;100.00
10618;BME280;5356;43.526;26.534;2023-09-18T04:13:44;99742.34;;;16.49;100.00
10618;BME280;5356;43.526;26.534;2023-09-18T04:16:09;99739.91;;;16.48;100.00
10618;BME280;5356;43.526;26.534;2023-09-18T04:18:38;99739.25;;;16.41;100.00
10618;BME280;5356;43.526;26.534;2023-09-18T04:21:04;99744.94;;;16.44;100.00
10618;BME280;5356;43.526;26.534;2023-09-18T04:23:29;99747.97;;;16.48;100.00
10618;BME280;5356;43.526;26.534;2023-09-18T04:25:55;99741.94;;;16.41;100.00
10618;BME280;5356;43.526;26.534;2023-09-18T04:28:23;99745.78;;;16.45;100.00
10618;BME280;5356;43.526;26.534;2023-09-18T04:30:49;99746.91;;;16.49;100.00
10618;BME280;5356;43.526;26.534;2023-09-18T04:33:15;99748.78;;;16.48;100.00
10618;BME280;5356;43.526;26.534;2023-09-18T04:35:41;99748.28;;;16.51;100.00
10618;BME280;5356;43.526;26.534;2023-09-18T04:38:07;99748.88;;;16.53;100.00
10618;BME280;5356;43.526;26.534;2023-09-18T04:40:36;99749.19;;;16.57;100.00
10618;BME280;5356;43.526;26.534;2023-09-18T04:43:02;99749.50;;;16.60;100.00
10618;BME280;5356;43.526;26.534;2023-09-18T04:45:31;99743.00;;;16.73;100.00
10618;BME280;5356;43.526;26.534;2023-09-18T04:47:57;99749.19;;;16.74;100.00
10618;BME280;5356;43.526;26.534;2023-09-18T04:50:23;99752.91;;;16.73;100.00
10618;BME280;5356;43.526;26.534;2023-09-18T04:52:48;99751.56;;;16.70;100.00
10618;BME280;5356;43.526;26.534;2023-09-18T04:55:16;99753.03;;;16.78;100.00
10618;BME280;5356;43.526;26.534;2023-09-18T04:57:41;99743.53;;;16.75;100.00
10618;BME280;5356;43.526;26.534;2023-09-18T05:00:07;99747.31;;;16.74;100.00
10618;BME280;5356;43.526;26.534;2023-09-18T05:02:34;99749.53;;;16.77;100.00
10618;BME280;5356;43.526;26.534;2023-09-18T05:05:00;99747.91;;;16.76;100.00
10618;BME280;5356;43.526;26.534;2023-09-18T05:07:25;99746.34;;;16.80;100.00
10618;BME280;5356;43.526;26.534;2023-09-18T05:09:51;99744.22;;;16.82;100.00
10618;BME280;5356;43.526;26.534;2023-09-18T05:12:17;99744.31;;;16.88;100.00
10618;BME280;5356;43.526;26.534;2023-09-18T05:14:43;99752.44;;;16.93;100.00
10618;BME280;5356;43.526;26.534;2023-09-18T05:17:10;99750.50;;;17.27;100.00
10618;BME280;5356;43.526;26.534;2023-09-18T05:19:37;99742.22;;;17.34;100.00
10618;BME280;5356;43.526;26.534;2023-09-18T05:22:03;99743.22;;;17.27;100.00
10618;BME280;5356;43.526;26.534;2023-09-18T05:24:28;99745.63;;;17.24;100.00
10618;BME280;5356;43.526;26.534;2023-09-18T05:26:54;99747.81;;;17.27;100.00
10618;BME280;5356;43.526;26.534;2023-09-18T05:29:20;99738.88;;;17.26;100.00
10618;BME280;5356;43.526;26.534;2023-09-18T05:31:45;99740.59;;;17.33;100.00
10618;BME280;5356;43.526;26.534;2023-09-18T05:34:12;99734.72;;;17.36;100.00
10618;BME280;5356;43.526;26.534;2023-09-18T05:36:38;99728.69;;;17.28;100.00
10618;BME280;5356;43.526;26.534;2023-09-18T05:39:04;99734.22;;;17.39;100.00
10618;BME280;5356;43.526;26.534;2023-09-18T05:41:30;99733.19;;;17.45;100.00
10618;BME280;5356;43.526;26.534;2023-09-18T05:43:56;99729.94;;;17.43;100.00
10618;BME280;5356;43.526;26.534;2023-09-18T05:46:22;99735.41;;;17.48;100.00
10618;BME280;5356;43.526;26.534;2023-09-18T05:48:47;99730.56;;;17.50;100.00
10618;BME280;5356;43.526;26.534;2023-09-18T05:51:13;99732.81;;;17.58;100.00
10618;BME280;5356;43.526;26.534;2023-09-18T05:53:38;99722.16;;;17.68;100.00
10618;BME280;5356;43.526;26.534;2023-09-18T05:56:04;99726.59;;;17.80;100.00
10618;BME280;5356;43.526;26.534;2023-09-18T05:58:33;99733.13;;;17.84;100.00
10618;BME280;5356;43.526;26.534;2023-09-18T06:00:59;99732.47;;;17.99;100.00
10618;BME280;5356;43.526;26.534;2023-09-18T06:03:28;99741.47;;;18.09;100.00
10618;BME280;5356;43.526;26.534;2023-09-18T06:05:56;99742.56;;;18.13;100.00
10618;BME280;5356;43.526;26.534;2023-09-18T06:08:21;99750.16;;;18.16;100.00
10618;BME280;5356;43.526;26.534;2023-09-18T06:10:47;99741.88;;;18.23;100.00
10618;BME280;5356;43.526;26.534;2023-09-18T06:13:13;99737.91;;;18.36;100.00
10618;BME280;5356;43.526;26.534;2023-09-18T06:15:38;99737.50;;;18.49;100.00
10618;BME280;5356;43.526;26.534;2023-09-18T06:18:04;99740.53;;;18.58;100.00
10618;BME280;5356;43.526;26.534;2023-09-18T06:20:31;99739.25;;;18.71;100.00
10618;BME280;5356;43.526;26.534;2023-09-18T06:22:56;99743.97;;;18.80;100.00
10618;BME280;5356;43.526;26.534;2023-09-18T06:25:22;99739.44;;;18.91;100.00
10618;BME280;5356;43.526;26.534;2023-09-18T06:27:47;99744.38;;;19.10;100.00
10618;BME280;5356;43.526;26.534;2023-09-18T06:30:13;99757.19;;;19.29;100.00
10618;BME280;5356;43.526;26.534;2023-09-18T06:32:39;99751.03;;;19.44;100.00
10618;BME280;5356;43.526;26.534;2023-09-18T06:35:05;99758.09;;;19.56;100.00
10618;BME280;5356;43.526;26.534;2023-09-18T06:37:30;99754.94;;;19.69;100.00
10618;BME280;5356;43.526;26.534;2023-09-18T06:39:56;99755.78;;;19.74;100.00
10618;BME280;5356;43.526;26.534;2023-09-18T06:42:24;99758.50;;;19.90;100.00
10618;BME280;5356;43.526;26.534;2023-09-18T06:44:49;99763.69;;;20.02;100.00
10618;BME280;5356;43.526;26.534;2023-09-18T06:47:15;99761.50;;;20.04;100.00
10618;BME280;5356;43.526;26.534;2023-09-18T06:49:41;99760.47;;;20.10;100.00
10618;BME280;5356;43.526;26.534;2023-09-18T06:52:08;99763.16;;;20.25;100.00
10618;BME280;5356;43.526;26.534;2023-09-18T06:54:33;99764.25;;;20.39;100.00
10618;BME280;5356;43.526;26.534;2023-09-18T06:56:59;99764.53;;;20.43;100.00
10618;BME280;5356;43.526;26.534;2023-09-18T06:59:24;99766.69;;;20.51;100.00
10618;BME280;5356;43.526;26.534;2023-09-18T07:01:50;99762.94;;;20.73;100.00
10618;BME280;5356;43.526;26.534;2023-09-18T07:04:15;99762.63;;;20.90;100.00
10618;BME280;5356;43.526;26.534;2023-09-18T07:06:41;99754.50;;;20.95;100.00
10618;BME280;5356;43.526;26.534;2023-09-18T07:09:06;99768.56;;;21.07;100.00
10618;BME280;5356;43.526;26.534;2023-09-18T07:11:33;99765.25;;;21.25;100.00
10618;BME280;5356;43.526;26.534;2023-09-18T07:13:59;99765.78;;;21.27;100.00
10618;BME280;5356;43.526;26.534;2023-09-18T07:16:25;99763.88;;;21.43;100.00
10618;BME280;5356;43.526;26.534;2023-09-18T07:18:50;99768.72;;;21.51;100.00
10618;BME280;5356;43.526;26.534;2023-09-18T07:21:15;99765.63;;;21.73;100.00
10618;BME280;5356;43.526;26.534;2023-09-18T07:23:41;99768.25;;;21.94;100.00
10618;BME280;5356;43.526;26.534;2023-09-18T07:26:06;99765.44;;;22.04;100.00
10618;BME280;5356;43.526;26.534;2023-09-18T07:28:32;99770.84;;;22.09;100.00
10618;BME280;5356;43.526;26.534;2023-09-18T07:31:04;99763.75;;;22.13;100.00
10618;BME280;5356;43.526;26.534;2023-09-18T07:33:30;99770.53;;;22.21;100.00
10618;BME280;5356;43.526;26.534;2023-09-18T07:35:55;99768.22;;;22.38;100.00
10618;BME280;5356;43.526;26.534;2023-09-18T07:38:21;99767.63;;;22.47;100.00
10618;BME280;5356;43.526;26.534;2023-09-18T07:40:46;99759.75;;;22.45;100.00
10618;BME280;5356;43.526;26.534;2023-09-18T07:43:12;99766.19;;;22.54;100.00
10618;BME280;5356;43.526;26.534;2023-09-18T07:45:39;99765.00;;;22.66;100.00
10618;BME280;5356;43.526;26.534;2023-09-18T07:48:08;99761.56;;;22.84;100.00
10618;BME280;5356;43.526;26.534;2023-09-18T07:50:34;99760.44;;;22.90;98.83
10618;BME280;5356;43.526;26.534;2023-09-18T07:53:01;99769.78;;;22.79;97.11
10618;BME280;5356;43.526;26.534;2023-09-18T07:55:27;99761.69;;;22.74;98.54
10618;BME280;5356;43.526;26.534;2023-09-18T07:57:52;99755.88;;;22.85;98.78
10618;BME280;5356;43.526;26.534;2023-09-18T08:00:17;99751.66;;;22.98;99.06
10618;BME280;5356;43.526;26.534;2023-09-18T08:02:43;99754.34;;;23.03;100.00
10618;BME280;5356;43.526;26.534;2023-09-18T08:05:10;99750.94;;;23.17;100.00
10618;BME280;5356;43.526;26.534;2023-09-18T08:07:36;99744.88;;;23.25;98.99
10618;BME280;5356;43.526;26.534;2023-09-18T08:10:03;99744.84;;;23.49;98.18
10618;BME280;5356;43.526;26.534;2023-09-18T08:12:32;99745.97;;;23.67;97.44
10618;BME280;5356;43.526;26.534;2023-09-18T08:14:57;99750.84;;;23.70;95.60
10618;BME280;5356;43.526;26.534;2023-09-18T08:17:24;99743.53;;;23.65;94.03
10618;BME280;5356;43.526;26.534;2023-09-18T08:19:53;99746.31;;;23.60;94.61
10618;BME280;5356;43.526;26.534;2023-09-18T08:22:19;99758.75;;;23.47;92.50
10618;BME280;5356;43.526;26.534;2023-09-18T08:24:47;99756.13;;;23.37;91.94
10618;BME280;5356;43.526;26.534;2023-09-18T08:27:16;99756.13;;;23.37;94.28
10618;BME280;5356;43.526;26.534;2023-09-18T08:29:45;99753.00;;;23.49;93.56
10618;BME280;5356;43.526;26.534;2023-09-18T08:32:11;99750.91;;;23.65;93.66
10618;BME280;5356;43.526;26.534;2023-09-18T08:34:36;99751.88;;;23.74;93.66
10618;BME280;5356;43.526;26.534;2023-09-18T08:37:02;99742.91;;;23.73;93.77
10618;BME280;5356;43.526;26.534;2023-09-18T08:39:29;99744.84;;;23.73;93.37
10618;BME280;5356;43.526;26.534;2023-09-18T08:41:59;99744.53;;;23.74;93.43
10618;BME280;5356;43.526;26.534;2023-09-18T08:44:28;99737.50;;;23.68;92.96
10618;BME280;5356;43.526;26.534;2023-09-18T08:46:57;99732.84;;;23.74;93.33
10618;BME280;5356;43.526;26.534;2023-09-18T08:49:24;99738.00;;;23.75;94.28
10618;BME280;5356;43.526;26.534;2023-09-18T08:51:54;99727.19;;;23.70;93.47
10618;BME280;5356;43.526;26.534;2023-09-18T08:54:21;99735.69;;;23.64;91.99
10618;BME280;5356;43.526;26.534;2023-09-18T08:56:47;99731.84;;;23.65;92.79
10618;BME280;5356;43.526;26.534;2023-09-18T08:59:12;99729.41;;;23.63;91.92
10618;BME280;5356;43.526;26.534;2023-09-18T09:01:39;99717.19;;;23.61;91.11
10618;BME280;5356;43.526;26.534;2023-09-18T09:04:05;99716.72;;;23.59;89.39
10618;BME280;5356;43.526;26.534;2023-09-18T09:06:30;99712.00;;;23.64;90.25
10618;BME280;5356;43.526;26.534;2023-09-18T09:08:56;99713.00;;;23.92;87.62
10618;BME280;5356;43.526;26.534;2023-09-18T09:11:21;99709.78;;;24.23;85.38
10618;BME280;5356;43.526;26.534;2023-09-18T09:13:47;99706.34;;;24.50;83.29
10618;BME280;5356;43.526;26.534;2023-09-18T09:16:25;99710.03;;;24.73;84.56
10618;BME280;5356;43.526;26.534;2023-09-18T09:18:50;99701.94;;;24.68;79.22
10618;BME280;5356;43.526;26.534;2023-09-18T09:21:16;99704.50;;;24.78;79.71
10618;BME280;5356;43.526;26.534;2023-09-18T09:23:46;99698.44;;;24.95;78.29
10618;BME280;5356;43.526;26.534;2023-09-18T09:26:18;99693.63;;;25.20;76.68
10618;BME280;5356;43.526;26.534;2023-09-18T09:28:44;99704.09;;;25.40;73.06
10618;BME280;5356;43.526;26.534;2023-09-18T09:31:10;99692.16;;;25.50;66.13
10618;BME280;5356;43.526;26.534;2023-09-18T09:33:36;99703.50;;;25.43;63.99
10618;BME280;5356;43.526;26.534;2023-09-18T09:36:07;99691.19;;;25.18;63.80
10618;BME280;5356;43.526;26.534;2023-09-18T09:38:34;99695.50;;;25.33;65.86
10618;BME280;5356;43.526;26.534;2023-09-18T09:41:04;99692.56;;;25.57;65.52
10618;BME280;5356;43.526;26.534;2023-09-18T09:43:35;99694.81;;;25.77;63.87
10618;BME280;5356;43.526;26.534;2023-09-18T09:46:01;99686.78;;;25.95;64.57
10618;BME280;5356;43.526;26.534;2023-09-18T09:48:27;99686.44;;;26.10;63.62
10618;BME280;5356;43.526;26.534;2023-09-18T09:50:59;99683.19;;;26.31;62.43
10618;BME280;5356;43.526;26.534;2023-09-18T09:53:47;99684.56;;;26.19;61.50
10618;BME280;5356;43.526;26.534;2023-09-18T09:56:14;99689.53;;;25.95;58.50
10618;BME280;5356;43.526;26.534;2023-09-18T09:58:40;99678.88;;;25.71;58.67
10618;BME280;5356;43.526;26.534;2023-09-18T10:01:11;99673.97;;;25.59;59.16
10618;BME280;5356;43.526;26.534;2023-09-18T10:03:44;99676.97;;;25.58;57.50
10618;BME280;5356;43.526;26.534;2023-09-18T10:06:11;99678.22;;;25.51;57.54
10618;BME280;5356;43.526;26.534;2023-09-18T10:08:40;99674.34;;;25.52;58.16
10618;BME280;5356;43.526;26.534;2023-09-18T10:11:07;99662.78;;;25.69;58.30
10618;BME280;5356;43.526;26.534;2023-09-18T10:13:42;99673.13;;;25.95;57.12
10618;BME280;5356;43.526;26.534;2023-09-18T10:16:12;99664.81;;;26.23;57.29
10618;BME280;5356;43.526;26.534;2023-09-18T10:24:10;99647.63;;;26.84;53.55
10618;BME280;5356;43.526;26.534;2023-09-18T10:27:00;99645.09;;;27.14;53.42
10618;BME280;5356;43.526;26.534;2023-09-18T10:29:29;99655.78;;;27.24;52.45
10618;BME280;5356;43.526;26.534;2023-09-18T10:31:55;99655.16;;;27.36;52.68
10618;BME280;5356;43.526;26.534;2023-09-18T10:34:22;99652.59;;;27.48;51.86
10618;BME280;5356;43.526;26.534;2023-09-18T10:36:50;99646.81;;;27.50;50.95
10618;BME280;5356;43.526;26.534;2023-09-18T10:39:16;99637.16;;;27.61;50.50
10618;BME280;5356;43.526;26.534;2023-09-18T10:41:48;99636.00;;;27.53;49.20
10618;BME280;5356;43.526;26.534;2023-09-18T10:44:15;99635.06;;;27.67;49.35
10618;BME280;5356;43.526;26.534;2023-09-18T10:46:43;99633.28;;;27.62;48.75
10618;BME280;5356;43.526;26.534;2023-09-18T10:49:09;99627.31;;;27.69;49.18
10618;BME280;5356;43.526;26.534;2023-09-18T10:51:37;99623.16;;;27.80;49.07
10618;BME280;5356;43.526;26.534;2023-09-18T10:54:10;99626.53;;;27.77;49.19
10618;BME280;5356;43.526;26.534;2023-09-18T10:56:36;99622.31;;;27.88;49.09
10618;BME280;5356;43.526;26.534;2023-09-18T10:59:03;99625.25;;;27.92;48.32
10618;BME280;5356;43.526;26.534;2023-09-18T11:01:30;99613.75;;;28.07;48.05
10618;BME280;5356;43.526;26.534;2023-09-18T11:04:06;99606.94;;;28.22;46.01
10618;BME280;5356;43.526;26.534;2023-09-18T11:09:40;99616.09;;;28.35;44.64
10618;BME280;5356;43.526;26.534;2023-09-18T11:12:06;99617.44;;;28.20;44.40
10618;BME280;5356;43.526;26.534;2023-09-18T11:14:56;99613.41;;;28.17;44.90
10618;BME280;5356;43.526;26.534;2023-09-18T11:20:18;99615.78;;;28.45;46.08
10618;BME280;5356;43.526;26.534;2023-09-18T11:28:04;99606.91;;;28.78;44.26
10618;BME280;5356;43.526;26.534;2023-09-18T11:30:34;99596.47;;;28.71;43.71
10618;BME280;5356;43.526;26.534;2023-09-18T11:33:05;99597.16;;;28.89;43.23
10618;BME280;5356;43.526;26.534;2023-09-18T11:35:35;99600.31;;;29.00;42.27
10618;BME280;5356;43.526;26.534;2023-09-18T11:38:09;99602.28;;;28.99;42.91
10618;BME280;5356;43.526;26.534;2023-09-18T11:40:35;99600.38;;;28.91;42.65
10618;BME280;5356;43.526;26.534;2023-09-18T11:43:26;99600.16;;;29.05;41.98
10618;BME280;5356;43.526;26.534;2023-09-18T11:45:56;99590.22;;;28.92;42.40
10618;BME280;5356;43.526;26.534;2023-09-18T11:48:25;99587.44;;;28.71;42.69
10618;BME280;5356;43.526;26.534;2023-09-18T11:50:56;99587.44;;;28.62;42.38
10618;BME280;5356;43.526;26.534;2023-09-18T11:53:23;99575.84;;;28.65;42.53
10618;BME280;5356;43.526;26.534;2023-09-18T11:55:50;99581.59;;;28.72;42.07
10618;BME280;5356;43.526;26.534;2023-09-18T11:58:15;99588.03;;;28.47;42.39
10618;BME280;5356;43.526;26.534;2023-09-18T12:00:41;99579.84;;;28.29;42.79
10618;BME280;5356;43.526;26.534;2023-09-18T12:03:21;99578.28;;;28.11;42.66
10618;BME280;5356;43.526;26.534;2023-09-18T12:05:56;99580.41;;;27.96;43.24
10618;BME280;5356;43.526;26.534;2023-09-18T12:08:22;99575.59;;;27.93;43.00
10618;BME280;5356;43.526;26.534;2023-09-18T12:10:50;99573.00;;;28.06;42.87
10618;BME280;5356;43.526;26.534;2023-09-18T12:13:16;99575.97;;;28.30;42.78
10618;BME280;5356;43.526;26.534;2023-09-18T12:15:42;99571.25;;;28.48;42.36
10618;BME280;5356;43.526;26.534;2023-09-18T12:18:09;99559.25;;;28.61;41.62
10618;BME280;5356;43.526;26.534;2023-09-18T12:20:37;99557.53;;;28.78;42.20
10618;BME280;5356;43.526;26.534;2023-09-18T12:23:02;99558.53;;;28.73;41.76
10618;BME280;5356;43.526;26.534;2023-09-18T12:25:28;99563.50;;;28.50;41.76
10618;BME280;5356;43.526;26.534;2023-09-18T12:27:54;99553.91;;;28.65;41.63
10618;BME280;5356;43.526;26.534;2023-09-18T12:30:21;99563.56;;;28.92;41.32
10618;BME280;5356;43.526;26.534;2023-09-18T12:32:51;99564.44;;;29.14;41.55
10618;BME280;5356;43.526;26.534;2023-09-18T12:35:17;99559.94;;;29.30;41.45
10618;BME280;5356;43.526;26.534;2023-09-18T12:37:44;99557.19;;;29.51;41.41
10618;BME280;5356;43.526;26.534;2023-09-18T12:40:22;99554.06;;;29.52;39.70
10618;BME280;5356;43.526;26.534;2023-09-18T12:42:49;99556.69;;;29.49;40.34
10618;BME280;5356;43.526;26.534;2023-09-18T12:45:14;99547.63;;;29.36;39.97
10618;BME280;5356;43.526;26.534;2023-09-18T12:47:40;99547.53;;;29.45;39.92
10618;BME280;5356;43.526;26.534;2023-09-18T12:50:06;99541.38;;;29.48;39.57
10618;BME280;5356;43.526;26.534;2023-09-18T12:52:32;99530.13;;;29.41;38.91
10618;BME280;5356;43.526;26.534;2023-09-18T12:54:58;99532.94;;;29.53;39.05
10618;BME280;5356;43.526;26.534;2023-09-18T12:57:25;99534.16;;;29.64;38.71
10618;BME280;5356;43.526;26.534;2023-09-18T12:59:51;99530.94;;;29.74;39.20
10618;BME280;5356;43.526;26.534;2023-09-18T13:02:18;99520.91;;;29.91;38.89
10618;BME280;5356;43.526;26.534;2023-09-18T13:04:54;99525.25;;;29.80;38.78
10618;BME280;5356;43.526;26.534;2023-09-18T13:07:21;99515.75;;;29.77;38.78
10618;BME280;5356;43.526;26.534;2023-09-18T13:10:00;99517.28;;;29.32;38.61
10618;BME280;5356;43.526;26.534;2023-09-18T13:12:39;99521.94;;;29.53;38.59